Time;durP1;ratioP1;P1;durP2;ratioP2;P2;SDS_P1;SDS_P2;PMS_P1;PMS_P2;Temp;Humidity;BMP_temperature;BMP_pressure;BME280_temperature;BME280_humidity;BME280_pressure;Samples;Min_cycle;Max_cycle;Signal;HPM_P1;HPM_P2
2021/12/07 00:00:55;;;;;;;4.88;3.63;;;2.60;99.90;;;;;;5052762;28;20032;-78
2021/12/07 00:03:21;;;;;;;2.88;2.58;;;2.60;99.90;;;;;;5052263;28;20029;-77
2021/12/07 00:05:48;;;;;;;3.28;2.97;;;2.50;99.90;;;;;;5052706;28;20048;-77
2021/12/07 00:08:15;;;;;;;3.75;2.85;;;2.50;99.90;;;;;;5051981;28;20033;-78
2021/12/07 00:10:42;;;;;;;4.35;2.65;;;2.40;99.90;;;;;;5052475;28;20033;-75
2021/12/07 00:13:11;;;;;;;3.30;3.00;;;2.40;99.90;;;;;;5033124;28;20033;-78
2021/12/07 00:15:39;;;;;;;3.50;3.00;;;2.30;99.90;;;;;;5051769;28;20049;-77
2021/12/07 00:18:06;;;;;;;5.15;3.22;;;2.30;99.90;;;;;;5052510;28;20508;-77
2021/12/07 00:20:32;;;;;;;6.50;4.13;;;2.30;99.90;;;;;;5051714;28;20060;-77
2021/12/07 00:23:03;;;;;;;4.75;4.25;;;2.20;99.90;;;;;;5052791;28;20359;-77
2021/12/07 00:25:30;;;;;;;5.93;4.13;;;2.20;99.90;;;;;;5051469;28;20461;-77
2021/12/07 00:27:56;;;;;;;9.25;4.45;;;2.20;99.90;;;;;;5052486;28;20393;-77
2021/12/07 00:30:27;;;;;;;5.97;5.20;;;2.30;99.90;;;;;;5051772;28;20044;-77
2021/12/07 00:33:08;;;;;;;4.50;4.00;;;2.30;99.90;;;;;;5033942;28;20041;-77
2021/12/07 00:35:35;;;;;;;4.53;3.85;;;2.20;99.90;;;;;;5034055;28;20040;-77
2021/12/07 00:38:05;;;;;;;10.10;4.13;;;2.30;99.90;;;;;;5052124;28;20378;-77
2021/12/07 00:40:32;;;;;;;4.70;3.97;;;2.30;99.90;;;;;;5016584;28;20045;-77
2021/12/07 00:42:59;;;;;;;5.55;4.28;;;2.30;99.90;;;;;;5051316;28;20056;-77
2021/12/07 00:45:25;;;;;;;5.70;5.18;;;2.30;99.90;;;;;;5051466;28;20370;-78
2021/12/07 00:47:54;;;;;;;4.43;4.03;;;2.30;99.90;;;;;;5033815;28;20033;-77
2021/12/07 00:50:23;;;;;;;4.13;3.72;;;2.30;99.90;;;;;;5051182;28;20048;-77
2021/12/07 00:52:50;;;;;;;4.70;4.30;;;2.40;99.90;;;;;;5050833;28;20041;-77
2021/12/07 00:55:23;;;;;;;5.70;4.85;;;2.40;99.90;;;;;;5051405;28;20032;-77
2021/12/07 00:57:53;;;;;;;4.32;4.03;;;2.30;99.90;;;;;;5052245;28;20338;-77
2021/12/07 01:00:20;;;;;;;5.85;4.50;;;2.40;99.90;;;;;;5032562;28;20056;-77
2021/12/07 01:02:47;;;;;;;6.80;5.15;;;2.40;99.90;;;;;;5033291;28;20049;-77
2021/12/07 01:05:20;;;;;;;5.40;4.10;;;2.40;99.90;;;;;;5050984;28;20044;-78
2021/12/07 01:07:57;;;;;;;4.88;4.45;;;2.40;99.90;;;;;;5033355;28;20052;-78
2021/12/07 01:26:53;;;;;;;6.15;5.03;;;2.50;99.90;;;;;;5052878;28;20033;-77
2021/12/07 01:29:23;;;;;;;6.03;5.53;;;2.50;99.90;;;;;;5033670;28;20045;-77
2021/12/07 01:59:33;;;;;;;5.78;5.28;;;2.60;99.90;;;;;;5036249;28;20044;-78
2021/12/07 02:02:05;;;;;;;5.95;5.35;;;2.60;99.90;;;;;;5055428;28;20040;-78
2021/12/07 02:04:32;;;;;;;6.28;4.68;;;2.60;99.90;;;;;;5036988;28;20037;-78
2021/12/07 02:06:59;;;;;;;6.13;5.57;;;2.70;99.90;;;;;;5038194;28;20045;-78
2021/12/07 02:09:26;;;;;;;6.10;5.60;;;2.70;99.90;;;;;;5036146;28;20486;-78
2021/12/07 02:12:00;;;;;;;8.52;6.05;;;2.70;99.90;;;;;;5037173;28;20392;-80
2021/12/07 02:14:28;;;;;;;6.55;5.90;;;2.70;99.90;;;;;;5054051;28;20053;-78
2021/12/07 02:17:02;;;;;;;7.55;6.72;;;2.80;99.90;;;;;;5039516;28;20041;-78
2021/12/07 02:19:29;;;;;;;7.63;6.82;;;2.80;99.90;;;;;;5036369;28;20402;-78
2021/12/07 02:21:57;;;;;;;30.38;26.65;;;2.80;99.90;;;;;;5036524;28;20048;-78
2021/12/07 02:24:30;;;;;;;13.77;12.27;;;2.80;99.90;;;;;;5054356;28;20040;-78
2021/12/07 02:26:57;;;;;;;7.88;6.55;;;2.70;99.90;;;;;;5054235;28;20045;-77
2021/12/07 02:29:24;;;;;;;15.02;11.32;;;2.80;99.90;;;;;;5035936;28;20397;-78
2021/12/07 02:31:52;;;;;;;12.70;9.85;;;2.80;99.90;;;;;;5054774;28;20021;-79
2021/12/07 02:34:18;;;;;;;13.85;12.30;;;2.80;99.90;;;;;;5035786;28;20045;-79
2021/12/07 02:36:45;;;;;;;24.58;22.10;;;2.80;99.90;;;;;;5036391;28;20041;-79
2021/12/07 02:39:14;;;;;;;16.63;12.90;;;2.90;99.90;;;;;;5036729;28;20041;-79
2021/12/07 02:41:42;;;;;;;13.98;12.50;;;2.80;99.90;;;;;;5035732;28;20056;-78
2021/12/07 02:44:11;;;;;;;89.57;57.83;;;2.70;99.90;;;;;;5035822;28;20047;-78
2021/12/07 02:46:38;;;;;;;16.88;12.95;;;2.70;99.90;;;;;;5034998;28;20048;-78
2021/12/07 02:49:08;;;;;;;19.27;17.40;;;2.70;99.90;;;;;;5035871;28;20044;-79
2021/12/07 02:51:35;;;;;;;16.40;12.90;;;2.70;99.90;;;;;;5035989;28;20041;-79
2021/12/07 02:54:03;;;;;;;6.32;5.65;;;2.70;99.90;;;;;;5035979;28;20048;-78
2021/12/07 02:56:29;;;;;;;21.17;18.88;;;2.60;99.90;;;;;;5053367;28;20033;-79
2021/12/07 02:59:00;;;;;;;65.70;48.13;;;2.60;99.90;;;;;;5054317;28;20033;-79
2021/12/07 03:01:31;;;;;;;12.45;11.20;;;2.60;99.90;;;;;;5053221;28;20035;-79
2021/12/07 03:26:15;;;;;;;7.65;5.78;;;2.60;99.90;;;;;;5035458;28;20048;-78
2021/12/07 03:28:49;;;;;;;4.22;3.80;;;2.60;99.90;;;;;;5034328;28;20049;-77
2021/12/07 03:31:20;;;;;;;3.33;2.85;;;2.60;99.90;;;;;;5053762;28;20040;-78
2021/12/07 03:33:48;;;;;;;2.90;2.70;;;2.70;99.90;;;;;;5035172;28;20050;-78
2021/12/07 03:36:15;;;;;;;4.20;3.65;;;2.70;99.90;;;;;;5052989;28;20052;-78
2021/12/07 03:38:42;;;;;;;5.75;4.32;;;2.60;99.90;;;;;;5034837;28;20037;-78
2021/12/07 03:41:10;;;;;;;17.95;11.48;;;2.60;99.90;;;;;;5034967;28;20049;-78
2021/12/07 03:43:37;;;;;;;10.48;8.27;;;2.60;99.90;;;;;;5034369;28;20397;-78
2021/12/07 03:46:05;;;;;;;10.10;9.10;;;2.60;99.90;;;;;;5034985;28;20048;-78
2021/12/07 03:48:32;;;;;;;3.63;3.22;;;2.60;99.90;;;;;;5052623;28;20036;-77
2021/12/07 03:50:58;;;;;;;8.98;5.72;;;2.60;99.90;;;;;;5053352;28;20029;-78
2021/12/07 03:53:27;;;;;;;11.93;6.25;;;2.50;99.90;;;;;;5033691;28;20045;-78
2021/12/07 03:55:55;;;;;;;5.07;4.57;;;2.50;99.90;;;;;;5035161;28;20040;-78
2021/12/07 03:58:24;;;;;;;6.22;5.60;;;2.40;99.90;;;;;;5017753;28;20056;-78
2021/12/07 04:00:50;;;;;;;7.00;6.30;;;2.30;99.90;;;;;;5035223;28;20037;-78
2021/12/07 04:03:18;;;;;;;36.35;32.30;;;2.20;99.90;;;;;;5034027;28;20037;-78
2021/12/07 04:05:49;;;;;;;7.88;6.70;;;2.20;99.90;;;;;;5052257;28;20033;-78
2021/12/07 04:08:25;;;;;;;11.63;9.65;;;2.20;99.90;;;;;;5034406;28;20037;-78
2021/12/07 04:10:54;;;;;;;25.90;15.95;;;2.20;99.90;;;;;;5034806;28;20489;-78
2021/12/07 04:13:21;;;;;;;22.50;15.27;;;2.20;99.90;;;;;;5052013;28;20048;-78
2021/12/07 04:15:47;;;;;;;16.98;12.50;;;2.20;99.90;;;;;;5052480;28;20458;-78
2021/12/07 04:18:14;;;;;;;17.75;13.77;;;2.20;99.90;;;;;;5033495;28;20056;-78
2021/12/07 04:20:41;;;;;;;10.02;8.85;;;2.10;99.90;;;;;;5033560;28;20988;-78
2021/12/07 04:23:08;;;;;;;5.43;4.85;;;2.10;99.90;;;;;;5034467;28;20049;-78
2021/12/07 04:25:35;;;;;;;5.15;4.60;;;2.10;99.90;;;;;;5051915;28;20040;-78
2021/12/07 04:28:02;;;;;;;3.25;2.55;;;2.00;99.90;;;;;;5052478;28;20037;-78
2021/12/07 04:30:37;;;;;;;5.07;4.60;;;2.00;99.90;;;;;;5033873;28;20043;-78
2021/12/07 04:33:06;;;;;;;4.15;2.78;;;2.10;99.90;;;;;;5052339;28;20423;-78
2021/12/07 04:35:34;;;;;;;9.50;1.83;;;2.10;99.90;;;;;;5051534;28;20032;-78
2021/12/07 04:38:00;;;;;;;3.97;3.10;;;2.30;99.90;;;;;;5052246;28;20033;-78
2021/12/07 04:40:29;;;;;;;3.70;2.35;;;2.30;99.90;;;;;;5051469;28;20044;-78
2021/12/07 04:42:56;;;;;;;3.15;2.83;;;2.30;99.90;;;;;;5051549;28;20048;-78
2021/12/07 04:58:40;;;;;;;7.47;5.90;;;2.70;99.90;;;;;;5036288;28;20032;-78
2021/12/07 05:01:10;;;;;;;3.50;2.83;;;2.60;99.90;;;;;;5033968;28;20032;-78
2021/12/07 05:03:40;;;;;;;16.00;10.52;;;2.60;99.90;;;;;;5050803;28;20048;-78
2021/12/07 05:06:08;;;;;;;5.15;3.67;;;2.70;99.90;;;;;;5052027;28;20470;-78
2021/12/07 05:08:41;;;;;;;6.05;3.05;;;2.70;99.90;;;;;;5050949;28;20025;-78
2021/12/07 05:24:04;;;;;;;8.13;4.85;;;2.70;99.90;;;;;;5050856;28;20056;-78
2021/12/07 05:40:19;;;;;;;6.03;2.40;;;2.90;99.90;;;;;;5033365;28;20391;-78
2021/12/07 05:42:46;;;;;;;2.45;1.95;;;2.90;99.90;;;;;;5051158;28;20378;-78
2021/12/07 05:45:16;;;;;;;3.50;3.20;;;2.90;99.90;;;;;;5051492;28;20458;-78
2021/12/07 05:47:43;;;;;;;2.50;2.03;;;3.00;99.90;;;;;;5050396;28;20025;-78
2021/12/07 05:50:13;;;;;;;4.22;2.95;;;2.90;99.90;;;;;;5039314;28;20042;-78
2021/12/07 05:52:39;;;;;;;2.13;1.90;;;2.90;99.90;;;;;;5038444;28;20037;-78
2021/12/07 05:55:06;;;;;;;5.72;5.22;;;2.90;99.90;;;;;;5042530;28;20029;-78
2021/12/07 05:57:33;;;;;;;3.50;2.88;;;2.90;99.90;;;;;;5050682;28;20040;-79
2021/12/07 05:59:59;;;;;;;3.53;3.22;;;2.90;99.90;;;;;;5051339;28;20029;-78
2021/12/07 06:02:25;;;;;;;5.45;3.35;;;2.90;99.90;;;;;;5051088;28;20029;-78
2021/12/07 06:04:52;;;;;;;3.58;2.70;;;2.80;99.90;;;;;;5049332;28;20045;-78
2021/12/07 06:07:18;;;;;;;3.85;3.35;;;2.80;99.90;;;;;;5050465;28;20045;-78
2021/12/07 06:09:44;;;;;;;5.55;4.40;;;2.80;99.90;;;;;;5050475;28;20040;-78
2021/12/07 06:12:10;;;;;;;6.43;3.80;;;2.70;99.90;;;;;;5032275;28;20033;-78
2021/12/07 06:14:42;;;;;;;5.03;2.80;;;2.70;99.90;;;;;;5050764;28;20049;-77
2021/12/07 06:17:09;;;;;;;6.53;4.60;;;2.80;99.90;;;;;;5051398;28;20037;-78
2021/12/07 06:19:35;;;;;;;8.82;6.57;;;2.80;99.90;;;;;;5032020;28;20037;-77
2021/12/07 06:22:02;;;;;;;9.65;5.28;;;2.80;99.90;;;;;;5050745;28;20029;-77
2021/12/07 06:24:28;;;;;;;8.57;5.50;;;2.90;99.90;;;;;;5033114;28;20048;-78
2021/12/07 06:26:55;;;;;;;66.43;47.40;;;2.90;99.90;;;;;;5050600;28;20029;-78
2021/12/07 06:29:21;;;;;;;28.73;19.65;;;3.00;99.90;;;;;;5050878;28;20036;-77
2021/12/07 06:31:47;;;;;;;11.10;8.52;;;3.00;99.90;;;;;;5050189;28;20040;-77
2021/12/07 06:34:13;;;;;;;15.43;9.23;;;3.10;99.90;;;;;;5051206;28;20041;-77
2021/12/07 06:36:40;;;;;;;14.65;7.22;;;3.10;99.90;;;;;;5050223;28;20059;-78
2021/12/07 06:39:08;;;;;;;35.13;24.73;;;3.10;99.90;;;;;;5049835;28;20041;-77
2021/12/07 06:41:34;;;;;;;5.80;3.10;;;3.30;99.90;;;;;;5052568;28;20049;-78
2021/12/07 06:44:00;;;;;;;6.70;4.97;;;3.40;99.90;;;;;;5061564;28;20044;-77
2021/12/07 06:46:27;;;;;;;4.68;2.78;;;3.50;99.90;;;;;;5054774;28;20386;-77
2021/12/07 06:48:53;;;;;;;5.25;3.58;;;3.60;99.90;;;;;;5035423;28;20124;-78
2021/12/07 06:51:20;;;;;;;6.65;4.28;;;3.60;99.90;;;;;;5054581;28;20033;-77
2021/12/07 06:53:46;;;;;;;4.95;2.53;;;3.50;99.90;;;;;;5053502;28;20025;-77
2021/12/07 06:56:12;;;;;;;9.63;7.32;;;3.60;99.90;;;;;;5054395;28;20036;-77
2021/12/07 06:58:39;;;;;;;17.67;4.55;;;3.50;99.90;;;;;;5053849;28;20362;-77
2021/12/07 07:01:08;;;;;;;4.28;2.45;;;3.50;99.90;;;;;;5053986;28;20040;-77
2021/12/07 07:03:34;;;;;;;4.30;2.30;;;3.50;99.90;;;;;;5032453;28;20029;-78
2021/12/07 07:06:02;;;;;;;3.60;2.20;;;3.50;99.90;;;;;;5039865;28;20044;-78
2021/12/07 07:08:29;;;;;;;7.60;2.45;;;3.70;99.90;;;;;;5016572;28;20029;-77
2021/12/07 07:10:55;;;;;;;6.28;2.33;;;3.60;99.90;;;;;;5033180;28;20572;-78
2021/12/07 07:13:21;;;;;;;4.88;2.55;;;3.70;99.90;;;;;;5033485;28;20041;-77
2021/12/07 07:15:48;;;;;;;4.35;2.45;;;3.70;99.90;;;;;;5052648;28;20410;-77
2021/12/07 07:18:14;;;;;;;8.40;2.58;;;3.80;99.90;;;;;;5040452;28;20045;-85
2021/12/07 07:20:40;;;;;;;4.57;2.40;;;3.80;99.90;;;;;;5016955;28;20045;-83
2021/12/07 07:23:06;;;;;;;7.70;2.45;;;3.80;99.90;;;;;;5016227;28;20049;-81
2021/12/07 07:25:33;;;;;;;4.68;2.22;;;3.90;99.90;;;;;;5033572;28;20119;-82
2021/12/07 07:28:00;;;;;;;6.57;2.90;;;4.00;99.90;;;;;;5034517;28;20443;-83
2021/12/07 07:30:26;;;;;;;5.90;2.50;;;4.00;99.90;;;;;;5034461;28;20026;-82
2021/12/07 07:32:52;;;;;;;11.68;3.05;;;4.00;99.90;;;;;;5033661;28;20034;-80
2021/12/07 07:35:20;;;;;;;7.05;2.30;;;4.10;99.90;;;;;;5033818;28;20038;-80
2021/12/07 07:37:46;;;;;;;5.82;1.90;;;4.20;99.60;;;;;;5033334;28;20041;-83
2021/12/07 07:40:16;;;;;;;4.03;2.53;;;4.20;99.60;;;;;;5016131;28;20033;-81
2021/12/07 07:42:43;;;;;;;2.78;1.92;;;4.10;99.40;;;;;;5015480;28;20074;-80
2021/12/07 07:45:33;;;;;;;4.93;2.42;;;4.00;99.60;;;;;;5002334;28;20053;-80
2021/12/07 07:47:59;;;;;;;4.32;3.05;;;4.00;99.60;;;;;;5033705;28;20029;-82
2021/12/07 07:50:26;;;;;;;6.03;3.42;;;4.00;99.70;;;;;;5015236;28;20389;-83
2021/12/07 07:52:52;;;;;;;10.15;6.28;;;4.00;99.60;;;;;;5015256;28;20037;-82
2021/12/07 07:55:19;;;;;;;6.93;4.57;;;4.10;99.20;;;;;;5035826;28;20394;-81
2021/12/07 07:57:45;;;;;;;4.15;2.78;;;4.00;98.80;;;;;;5032821;28;20042;-82
2021/12/07 08:00:16;;;;;;;4.65;2.72;;;4.10;98.60;;;;;;5033297;28;20037;-81
2021/12/07 08:02:44;;;;;;;4.07;2.50;;;4.20;98.50;;;;;;5032943;28;20034;-82
2021/12/07 08:05:12;;;;;;;4.65;2.58;;;4.20;98.20;;;;;;5033383;28;20040;-81
2021/12/07 08:07:39;;;;;;;5.43;3.13;;;4.30;98.00;;;;;;5032998;28;20467;-82
2021/12/07 08:10:08;;;;;;;6.75;3.30;;;4.30;97.80;;;;;;5033494;28;20034;-81
2021/12/07 08:12:35;;;;;;;8.00;4.97;;;4.30;97.60;;;;;;5033047;28;20033;-82
2021/12/07 08:15:03;;;;;;;8.20;3.78;;;4.30;97.00;;;;;;5033557;28;20076;-82
2021/12/07 08:17:29;;;;;;;9.25;5.38;;;4.30;96.80;;;;;;5033225;28;20074;-82
2021/12/07 08:19:55;;;;;;;5.80;3.00;;;4.40;96.30;;;;;;5032534;28;20040;-82
2021/12/07 08:22:21;;;;;;;5.50;2.63;;;4.40;95.60;;;;;;5033362;28;20386;-82
2021/12/07 08:24:49;;;;;;;9.48;3.20;;;4.50;95.50;;;;;;5033157;28;20037;-83
2021/12/07 08:27:16;;;;;;;4.38;3.53;;;4.50;95.50;;;;;;5033296;28;20034;-81
2021/12/07 08:29:42;;;;;;;7.45;4.35;;;4.40;95.30;;;;;;5032384;28;20029;-81
2021/12/07 08:32:09;;;;;;;6.07;3.58;;;4.50;95.30;;;;;;5033010;28;20041;-81
2021/12/07 08:34:35;;;;;;;8.60;3.00;;;4.50;95.10;;;;;;5032816;28;20037;-81
2021/12/07 08:37:02;;;;;;;5.07;3.03;;;4.50;95.10;;;;;;5033259;28;20025;-82
2021/12/07 08:39:28;;;;;;;10.88;4.47;;;4.60;94.70;;;;;;5033006;28;20029;-82
2021/12/07 08:41:55;;;;;;;7.43;2.97;;;4.60;94.90;;;;;;5031792;28;20045;-82
2021/12/07 08:44:21;;;;;;;7.97;4.28;;;4.50;95.10;;;;;;5014629;28;20045;-83
2021/12/07 08:46:47;;;;;;;4.82;2.92;;;4.60;95.10;;;;;;5032357;28;20059;-82
2021/12/07 08:49:15;;;;;;;4.95;3.50;;;4.60;94.70;;;;;;5032793;28;20203;-83
2021/12/07 08:51:42;;;;;;;8.32;4.03;;;4.70;94.80;;;;;;4997749;28;20045;-81
2021/12/07 08:59:35;;;;;;;7.72;4.30;;;4.70;94.30;;;;;;5032769;28;20048;-81
2021/12/07 08:59:58;;;;;;;5.95;3.88;;;4.70;94.20;;;;;;5032022;28;20049;-82
2021/12/07 09:02:26;;;;;;;6.68;4.90;;;4.80;94.00;;;;;;5032231;28;20037;-82
2021/12/07 09:04:54;;;;;;;8.63;4.30;;;4.80;94.00;;;;;;5013513;28;20052;-82
2021/12/07 09:07:22;;;;;;;6.13;3.15;;;4.80;94.20;;;;;;5032375;28;20029;-82
2021/12/07 09:09:48;;;;;;;5.93;2.88;;;4.80;94.30;;;;;;5031574;28;20482;-82
2021/12/07 09:12:16;;;;;;;5.85;2.47;;;4.80;94.30;;;;;;5032178;28;20040;-82
2021/12/07 09:14:43;;;;;;;5.68;2.58;;;4.70;94.40;;;;;;5031798;28;20053;-83
2021/12/07 09:17:12;;;;;;;4.93;2.33;;;4.80;94.40;;;;;;5032156;28;20034;-83
2021/12/07 09:19:39;;;;;;;6.97;2.17;;;4.80;94.20;;;;;;5014405;28;20038;-81
2021/12/07 09:22:06;;;;;;;3.67;2.10;;;4.90;94.40;;;;;;5032311;28;20044;-83
2021/12/07 09:24:33;;;;;;;7.68;3.35;;;4.90;94.30;;;;;;5033061;28;20030;-83
2021/12/07 09:27:00;;;;;;;6.93;2.33;;;4.90;94.10;;;;;;5032683;28;20409;-83
2021/12/07 09:29:27;;;;;;;12.20;3.60;;;4.90;94.20;;;;;;5037122;28;20037;-82
2021/12/07 09:31:54;;;;;;;7.80;2.45;;;4.90;93.70;;;;;;5053088;28;20022;-82
2021/12/07 09:34:20;;;;;;;14.15;2.65;;;4.90;93.70;;;;;;5038425;28;20057;-82
2021/12/07 09:36:47;;;;;;;8.70;3.97;;;5.00;94.10;;;;;;5021241;28;20037;-83
2021/12/07 09:39:16;;;;;;;5.63;3.10;;;5.00;94.00;;;;;;5033798;28;20052;-83
2021/12/07 09:41:44;;;;;;;7.78;3.63;;;5.00;93.40;;;;;;5033443;28;20473;-82
2021/12/07 09:44:10;;;;;;;9.05;3.60;;;5.10;93.60;;;;;;5014198;28;20046;-82
2021/12/07 09:46:37;;;;;;;4.35;2.53;;;5.10;94.00;;;;;;5032458;28;20037;-82
2021/12/07 09:49:05;;;;;;;7.57;3.60;;;5.20;93.90;;;;;;5014108;28;20057;-82
2021/12/07 09:51:32;;;;;;;7.80;4.22;;;5.20;93.70;;;;;;5032626;28;20037;-83
2021/12/07 09:54:00;;;;;;;10.02;3.58;;;5.20;93.80;;;;;;5031017;28;20033;-83
2021/12/07 09:56:27;;;;;;;6.97;2.92;;;5.30;93.60;;;;;;5031404;28;20026;-82
2021/12/07 09:58:55;;;;;;;4.00;2.38;;;5.30;93.60;;;;;;4997012;28;20042;-82
2021/12/07 10:01:23;;;;;;;8.27;2.90;;;5.40;93.40;;;;;;5031563;28;20044;-81
2021/12/07 10:03:50;;;;;;;19.00;4.32;;;5.40;93.40;;;;;;5030977;28;20386;-82
2021/12/07 10:06:16;;;;;;;30.40;12.40;;;5.40;93.20;;;;;;5031676;28;20034;-83
2021/12/07 10:08:43;;;;;;;8.10;5.15;;;5.50;92.80;;;;;;5031434;28;20033;-83
2021/12/07 10:11:10;;;;;;;4.40;2.35;;;5.50;92.80;;;;;;5031722;28;20033;-81
2021/12/07 10:13:40;;;;;;;3.85;2.20;;;5.50;90.90;;;;;;5031409;28;20110;-83
2021/12/07 10:16:08;;;;;;;7.40;2.50;;;5.60;90.40;;;;;;5033517;28;20488;-82
2021/12/07 10:18:36;;;;;;;12.50;3.28;;;5.70;90.70;;;;;;5035186;28;20040;-82
2021/12/07 10:21:10;;;;;;;5.20;1.98;;;5.80;90.30;;;;;;5035061;28;20379;-83
2021/12/07 10:23:40;;;;;;;9.23;2.63;;;5.90;89.40;;;;;;5035226;28;20050;-83
2021/12/07 10:26:10;;;;;;;16.40;6.28;;;6.20;89.10;;;;;;5034693;28;20056;-83
2021/12/07 10:28:49;;;;;;;5.30;2.25;;;6.60;86.20;;;;;;5035216;28;20029;-85
2021/12/07 10:31:21;;;;;;;7.50;2.30;;;6.70;84.60;;;;;;5034974;28;20037;-82
2021/12/07 10:34:15;;;;;;;7.28;1.92;;;6.80;83.10;;;;;;5034157;28;20033;-82
2021/12/07 10:36:46;;;;;;;4.68;1.65;;;6.90;82.60;;;;;;5027827;28;20037;-82
2021/12/07 10:39:27;;;;;;;4.50;1.90;;;6.80;79.80;;;;;;5035042;28;20037;-82
2021/12/07 10:41:57;;;;;;;4.25;1.83;;;6.70;80.70;;;;;;5016701;28;20045;-81
2021/12/07 10:44:26;;;;;;;10.02;3.50;;;6.70;80.90;;;;;;5034859;28;20030;-82
2021/12/07 10:47:03;;;;;;;9.40;5.03;;;6.80;80.60;;;;;;5034323;28;20382;-82
2021/12/07 10:49:32;;;;;;;6.20;2.63;;;6.90;79.20;;;;;;5034775;28;20386;-82
2021/12/07 10:52:21;;;;;;;4.97;2.50;;;6.90;78.70;;;;;;5034305;28;20037;-83
2021/12/07 10:54:55;;;;;;;10.85;1.90;;;6.90;79.00;;;;;;5034116;28;20355;-81
2021/12/07 10:57:24;;;;;;;3.63;1.48;;;7.00;76.60;;;;;;5034732;28;20044;-82
2021/12/07 10:59:55;;;;;;;5.40;1.83;;;6.90;76.40;;;;;;5016581;28;20044;-81
2021/12/07 11:02:24;;;;;;;6.15;1.60;;;7.00;76.40;;;;;;5034457;28;20489;-81
2021/12/07 11:04:51;;;;;;;8.70;2.17;;;6.90;76.10;;;;;;5033977;28;20033;-81
2021/12/07 11:07:22;;;;;;;14.55;3.33;;;6.90;76.20;;;;;;5036037;28;20136;-80
2021/12/07 11:10:15;;;;;;;4.90;2.17;;;6.90;75.00;;;;;;5034206;28;20041;-81
2021/12/07 11:12:59;;;;;;;13.85;7.82;;;7.00;75.40;;;;;;5034950;28;20041;-81
2021/12/07 11:15:28;;;;;;;8.07;2.50;;;7.20;76.30;;;;;;5034258;28;20038;-81
2021/12/07 11:18:04;;;;;;;24.85;14.48;;;7.30;74.20;;;;;;5032285;28;20049;-81
2021/12/07 11:20:32;;;;;;;13.27;2.67;;;7.40;74.40;;;;;;5034318;28;20455;-81
2021/12/07 11:23:03;;;;;;;4.57;2.15;;;7.60;73.40;;;;;;5033727;28;20052;-82
2021/12/07 11:31:11;;;;;;;7.10;3.53;;;7.40;72.70;;;;;;5033486;28;20033;-80
2021/12/07 11:33:38;;;;;;;4.03;1.70;;;7.50;71.80;;;;;;5033700;28;20030;-80
2021/12/07 11:36:15;;;;;;;2.92;1.42;;;7.40;71.40;;;;;;5033507;28;20040;-81
2021/12/07 11:38:41;;;;;;;6.85;3.30;;;7.20;72.00;;;;;;5034063;28;20030;-80
2021/12/07 11:41:20;;;;;;;4.10;1.63;;;7.20;71.50;;;;;;5033408;28;20037;-82
2021/12/07 11:43:52;;;;;;;4.47;1.40;;;7.00;72.20;;;;;;5033568;28;20038;-81
2021/12/07 11:46:21;;;;;;;4.70;1.88;;;6.80;71.70;;;;;;5016113;28;20037;-81
2021/12/07 11:48:48;;;;;;;4.13;2.35;;;6.60;71.90;;;;;;5033132;28;20489;-80
2021/12/07 11:51:14;;;;;;;7.65;2.35;;;6.70;73.10;;;;;;5016006;28;20131;-81
2021/12/07 11:53:41;;;;;;;5.65;2.35;;;6.70;74.20;;;;;;5033825;28;20037;-82
2021/12/07 11:56:07;;;;;;;7.35;4.93;;;6.60;74.20;;;;;;5033054;28;20223;-82
2021/12/07 11:58:34;;;;;;;3.70;2.45;;;6.60;75.00;;;;;;5033668;28;20029;-82
2021/12/07 12:01:05;;;;;;;5.63;1.77;;;6.60;74.80;;;;;;5032886;28;20037;-82
2021/12/07 12:03:32;;;;;;;5.05;3.05;;;6.60;74.70;;;;;;5033396;28;20049;-83
2021/12/07 12:05:59;;;;;;;6.70;4.93;;;6.50;75.00;;;;;;5032732;28;20030;-83
2021/12/07 12:08:26;;;;;;;11.40;8.15;;;6.60;74.90;;;;;;5033507;28;20033;-84
2021/12/07 12:11:00;;;;;;;5.03;4.00;;;6.70;73.90;;;;;;5032722;28;20029;-81
2021/12/07 12:13:53;;;;;;;4.45;2.85;;;6.90;73.40;;;;;;5033006;28;20058;-84
2021/12/07 12:16:25;;;;;;;4.68;2.53;;;7.00;72.80;;;;;;5033208;28;20033;-82
2021/12/07 12:19:09;;;;;;;5.35;2.05;;;7.20;72.20;;;;;;5032584;28;20034;-81
2021/12/07 12:21:59;;;;;;;6.55;3.45;;;7.20;72.50;;;;;;5032991;28;20033;-82
2021/12/07 12:24:35;;;;;;;9.30;2.15;;;7.10;72.80;;;;;;5032771;28;20053;-85
2021/12/07 12:27:10;;;;;;;7.43;4.57;;;7.10;71.40;;;;;;5031680;28;20041;-85
2021/12/07 12:29:39;;;;;;;15.77;8.93;;;7.00;71.80;;;;;;5033295;28;20041;-84
2021/12/07 12:32:06;;;;;;;5.07;2.60;;;6.90;71.80;;;;;;5032470;28;20068;-84
2021/12/07 12:34:38;;;;;;;9.15;2.67;;;6.80;72.40;;;;;;5032799;28;20030;-82
2021/12/07 12:37:06;;;;;;;5.25;1.90;;;6.70;72.20;;;;;;5032510;28;20040;-82
2021/12/07 12:40:09;;;;;;;5.07;1.33;;;6.80;72.00;;;;;;5032008;28;20037;-84
2021/12/07 12:42:42;;;;;;;6.45;1.85;;;7.10;70.50;;;;;;5032745;28;20471;-84
2021/12/07 12:45:23;;;;;;;2.92;1.17;;;7.40;69.80;;;;;;5032384;28;20471;-85
2021/12/07 12:48:04;;;;;;;8.32;1.80;;;7.60;68.10;;;;;;5032765;28;20064;-82
2021/12/07 12:50:38;;;;;;;3.75;1.33;;;7.50;67.60;;;;;;5032510;28;20489;-84
2021/12/07 12:53:12;;;;;;;5.78;2.00;;;7.40;67.10;;;;;;5031908;28;20033;-83
2021/12/07 12:55:56;;;;;;;4.20;1.48;;;7.40;68.80;;;;;;5032425;28;20045;-82
2021/12/07 12:58:28;;;;;;;5.28;1.83;;;7.30;68.20;;;;;;5032394;28;20026;-83
2021/12/07 13:00:57;;;;;;;2.10;1.23;;;7.20;68.90;;;;;;5031659;28;20034;-82
2021/12/07 13:03:23;;;;;;;3.00;1.23;;;7.20;68.80;;;;;;5032059;28;20038;-83
2021/12/07 13:06:01;;;;;;;8.68;1.65;;;7.20;69.50;;;;;;5032943;28;20037;-85
2021/12/07 13:08:28;;;;;;;4.72;1.58;;;7.20;69.00;;;;;;5033230;28;20370;-84
2021/12/07 13:11:03;;;;;;;5.95;1.88;;;7.20;69.90;;;;;;5032118;28;20029;-84
2021/12/07 13:13:33;;;;;;;3.75;2.00;;;7.20;69.70;;;;;;5031502;28;20053;-85
2021/12/07 13:16:17;;;;;;;10.27;2.95;;;7.20;70.70;;;;;;5032186;28;20029;-83
2021/12/07 13:18:44;;;;;;;4.13;2.80;;;7.10;70.10;;;;;;5032469;28;20037;-83
2021/12/07 13:21:31;;;;;;;5.00;2.15;;;7.20;70.50;;;;;;5031786;28;20386;-82
2021/12/07 13:24:07;;;;;;;7.43;2.67;;;7.10;71.20;;;;;;5031524;28;20049;-82
2021/12/07 13:26:35;;;;;;;12.02;5.95;;;7.20;71.00;;;;;;5032495;28;20033;-83
2021/12/07 13:29:27;;;;;;;6.15;2.20;;;7.40;70.90;;;;;;5031019;28;20045;-84
2021/12/07 13:31:57;;;;;;;7.93;1.88;;;7.40;69.90;;;;;;5038632;28;20037;-81
2021/12/07 13:34:34;;;;;;;13.75;7.72;;;7.40;70.40;;;;;;5051966;28;20033;-83
2021/12/07 13:37:09;;;;;;;20.05;13.00;;;7.40;70.00;;;;;;5051389;28;20036;-81
2021/12/07 13:39:56;;;;;;;11.82;7.22;;;7.40;71.50;;;;;;5048419;28;20044;-84
2021/12/07 13:42:28;;;;;;;38.63;30.98;;;7.40;70.30;;;;;;4997887;28;20056;-84
2021/12/07 13:44:59;;;;;;;11.73;3.88;;;7.30;70.40;;;;;;5031696;28;20382;-81
2021/12/07 13:47:43;;;;;;;10.98;4.60;;;7.20;71.20;;;;;;5032235;28;20034;-85
2021/12/07 13:50:18;;;;;;;6.95;4.07;;;7.10;70.90;;;;;;5033829;28;20125;-85
2021/12/07 13:52:49;;;;;;;6.30;2.95;;;7.10;72.20;;;;;;5018253;28;20482;-84
2021/12/07 13:55:18;;;;;;;5.47;1.77;;;7.00;71.90;;;;;;5017711;28;20057;-84
2021/12/07 13:57:48;;;;;;;4.53;2.17;;;7.10;71.90;;;;;;5035943;28;20029;-84
2021/12/07 14:00:17;;;;;;;8.32;1.98;;;7.10;71.90;;;;;;5035348;28;20240;-85
2021/12/07 14:02:58;;;;;;;3.95;2.13;;;7.00;71.60;;;;;;5035624;28;20053;-84
2021/12/07 14:05:34;;;;;;;9.05;2.08;;;6.90;72.10;;;;;;5035432;28;20037;-83
2021/12/07 14:08:03;;;;;;;4.65;2.33;;;6.80;72.80;;;;;;5035297;28;20509;-82
2021/12/07 14:10:51;;;;;;;7.15;2.00;;;6.70;73.10;;;;;;5034577;28;20040;-82
2021/12/07 14:13:19;;;;;;;7.55;2.15;;;6.70;73.20;;;;;;5034870;28;20061;-82
2021/12/07 14:15:48;;;;;;;10.20;3.03;;;6.60;73.60;;;;;;5035804;28;20478;-80
2021/12/07 14:18:23;;;;;;;3.85;2.47;;;6.50;74.50;;;;;;5034732;28;20033;-82
2021/12/07 14:20:58;;;;;;;4.57;1.52;;;6.40;75.80;;;;;;5035823;28;20034;-83
2021/12/07 14:23:28;;;;;;;2.80;1.23;;;6.30;76.30;;;;;;5038762;28;20375;-84
2021/12/07 14:26:04;;;;;;;7.60;1.55;;;6.10;77.10;;;;;;5035534;28;20497;-83
2021/12/07 14:28:41;;;;;;;4.95;1.80;;;6.00;77.80;;;;;;5017331;28;20038;-83
2021/12/07 14:31:26;;;;;;;4.97;1.77;;;5.90;78.10;;;;;;5017021;28;20037;-83
2021/12/07 14:33:57;;;;;;;4.68;2.45;;;5.80;78.80;;;;;;5035569;28;20569;-83
2021/12/07 14:36:36;;;;;;;6.82;3.10;;;5.80;79.30;;;;;;5035467;28;20459;-83
2021/12/07 14:39:25;;;;;;;6.50;2.47;;;5.70;79.50;;;;;;5034709;28;20037;-82
2021/12/07 14:42:12;;;;;;;6.03;2.70;;;5.70;79.80;;;;;;5034902;28;20041;-83
2021/12/07 14:44:45;;;;;;;4.97;1.80;;;5.70;80.40;;;;;;5034915;28;20037;-82
2021/12/07 14:47:11;;;;;;;13.02;2.78;;;5.60;80.60;;;;;;5034394;28;20037;-82
2021/12/07 14:49:41;;;;;;;8.07;2.58;;;5.50;81.00;;;;;;5035127;28;20458;-82
2021/12/07 14:52:15;;;;;;;7.75;2.65;;;5.60;81.30;;;;;;5034012;28;20044;-82
2021/12/07 14:54:43;;;;;;;6.32;2.47;;;5.60;81.60;;;;;;5034698;28;20034;-84
2021/12/07 14:57:09;;;;;;;4.95;2.72;;;5.60;81.80;;;;;;5033734;28;20029;-81
2021/12/07 14:59:39;;;;;;;15.93;3.70;;;5.60;81.90;;;;;;5034400;28;20040;-81
2021/12/07 15:02:09;;;;;;;7.85;2.78;;;5.50;82.00;;;;;;5033275;28;20052;-82